Local Weather
17097
page-template-default,page,page-id-17097,bridge-core-1.0.4,ajax_fade,page_not_loaded,,hide_top_bar_on_mobile_header,qode-child-theme-ver-1.0.0,qode-theme-ver-18.0.9,qode-theme-bridge,qode_header_in_grid,wpb-js-composer js-comp-ver-4.11.2.1,vc_responsive
 

LOCAL WEATHER

METAR & TAF for EGTK Oxford

Available data for EGTK from the past hour
OXFORD
Metar
EGTK 251550Z 34003KT 9999 FEW015 08/06 Q1014

15:50 UTC

Wind: 340° 3kt

Visibility: 9999 m

Sky: FEW 1500 ft

Temp: 8 deg C / 46.4 deg F

Dewpoint: 6 deg C / 42.8 deg F

Pressure: 1014 hPa

TAF
TAF EGTK 251357Z 2515/2523 33006KT 9999 SCT035